sensor_id;sensor_type;location;lat;lon;timestamp;pressure;altitude;pressure_sealevel;temperature;humidity
16664;BME280;8445;51.270;9.434;2022-11-21T00:01:10;98019.91;;;2.39;84.89
16664;BME280;8445;51.270;9.434;2022-11-21T00:03:36;98024.94;;;2.42;85.41
16664;BME280;8445;51.270;9.434;2022-11-21T00:06:02;98024.00;;;2.43;84.87
16664;BME280;8445;51.270;9.434;2022-11-21T00:08:27;98024.00;;;2.43;84.74
16664;BME280;8445;51.270;9.434;2022-11-21T00:10:57;98027.34;;;2.45;85.29
16664;BME280;8445;51.270;9.434;2022-11-21T00:13:23;98030.06;;;2.44;84.81
16664;BME280;8445;51.270;9.434;2022-11-21T00:15:48;98033.91;;;2.38;84.83
16664;BME280;8445;51.270;9.434;2022-11-21T00:18:14;98041.69;;;2.25;84.65
16664;BME280;8445;51.270;9.434;2022-11-21T00:20:40;98043.00;;;2.18;84.93
16664;BME280;8445;51.270;9.434;2022-11-21T00:23:06;98044.13;;;2.14;85.04
16664;BME280;8445;51.270;9.434;2022-11-21T00:25:32;98045.06;;;2.13;nan
16664;BME280;8445;51.270;9.434;2022-11-21T00:27:57;98055.06;;;2.06;85.98
16664;BME280;8445;51.270;9.434;2022-11-21T00:30:24;98058.88;;;2.00;86.60
16664;BME280;8445;51.270;9.434;2022-11-21T00:32:49;98060.09;;;1.95;86.71
16664;BME280;8445;51.270;9.434;2022-11-21T00:35:15;98045.00;;;2.00;85.99
16664;BME280;8445;51.270;9.434;2022-11-21T00:37:40;98053.56;;;2.02;85.68
16664;BME280;8445;51.270;9.434;2022-11-21T00:40:06;98045.53;;;2.05;85.09
16664;BME280;8445;51.270;9.434;2022-11-21T00:42:31;98055.41;;;2.14;85.31
16664;BME280;8445;51.270;9.434;2022-11-21T00:44:57;98054.19;;;2.20;85.02
16664;BME280;8445;51.270;9.434;2022-11-21T00:47:23;98050.44;;;2.24;85.21
16664;BME280;8445;51.270;9.434;2022-11-21T00:49:48;98057.88;;;2.30;85.26
16664;BME280;8445;51.270;9.434;2022-11-21T00:52:15;98061.16;;;2.34;85.55
16664;BME280;8445;51.270;9.434;2022-11-21T00:54:40;98053.94;;;2.37;85.24
16664;BME280;8445;51.270;9.434;2022-11-21T00:57:06;98050.28;;;2.40;85.11
16664;BME280;8445;51.270;9.434;2022-11-21T00:59:31;98056.06;;;2.45;84.98
16664;BME280;8445;51.270;9.434;2022-11-21T01:01:57;98047.22;;;2.48;85.55
16664;BME280;8445;51.270;9.434;2022-11-21T01:04:22;98054.94;;;2.49;84.67
16664;BME280;8445;51.270;9.434;2022-11-21T01:06:47;98062.69;;;2.51;85.06
16664;BME280;8445;51.270;9.434;2022-11-21T01:09:13;98062.69;;;2.51;85.26
16664;BME280;8445;51.270;9.434;2022-11-21T01:11:38;98069.47;;;2.54;85.04
16664;BME280;8445;51.270;9.434;2022-11-21T01:14:04;98062.56;;;2.52;85.01
16664;BME280;8445;51.270;9.434;2022-11-21T01:16:30;98076.28;;;2.56;84.71
16664;BME280;8445;51.270;9.434;2022-11-21T01:18:56;98071.78;;;2.58;84.93
16664;BME280;8445;51.270;9.434;2022-11-21T01:21:25;98085.66;;;2.59;85.04
16664;BME280;8445;51.270;9.434;2022-11-21T01:23:51;98085.25;;;2.52;84.83
16664;BME280;8445;51.270;9.434;2022-11-21T01:26:22;98083.94;;;2.45;85.41
16664;BME280;8445;51.270;9.434;2022-11-21T01:28:48;98093.53;;;2.44;84.85
16664;BME280;8445;51.270;9.434;2022-11-21T01:31:16;98101.66;;;2.40;84.91
16664;BME280;8445;51.270;9.434;2022-11-21T01:33:42;98097.28;;;2.40;85.07
16664;BME280;8445;51.270;9.434;2022-11-21T01:36:10;98100.63;;;2.42;85.56
16664;BME280;8445;51.270;9.434;2022-11-21T01:38:36;98102.31;;;2.43;85.44
16664;BME280;8445;51.270;9.434;2022-11-21T01:41:02;98106.50;;;2.46;85.44
16664;BME280;8445;51.270;9.434;2022-11-21T01:43:27;98118.50;;;2.48;85.14
16664;BME280;8445;51.270;9.434;2022-11-21T01:46:03;98108.81;;;2.50;85.10
16664;BME280;8445;51.270;9.434;2022-11-21T01:48:37;98112.34;;;2.49;84.94
16664;BME280;8445;51.270;9.434;2022-11-21T01:51:19;98121.88;;;2.50;84.93
16664;BME280;8445;51.270;9.434;2022-11-21T01:53:52;98122.91;;;2.48;85.05
16664;BME280;8445;51.270;9.434;2022-11-21T01:56:19;98129.88;;;2.47;84.74
16664;BME280;8445;51.270;9.434;2022-11-21T01:58:46;98141.94;;;2.50;84.85
16664;BME280;8445;51.270;9.434;2022-11-21T02:01:11;98145.53;;;2.47;84.90
16664;BME280;8445;51.270;9.434;2022-11-21T02:03:40;98141.19;;;2.48;84.72
16664;BME280;8445;51.270;9.434;2022-11-21T02:06:08;98146.47;;;2.46;85.25
16664;BME280;8445;51.270;9.434;2022-11-21T02:08:35;98156.91;;;2.46;84.82
16664;BME280;8445;51.270;9.434;2022-11-21T02:11:10;98159.53;;;2.46;85.00
16664;BME280;8445;51.270;9.434;2022-11-21T02:13:36;98161.41;;;2.44;85.14
16664;BME280;8445;51.270;9.434;2022-11-21T02:16:02;98169.97;;;2.46;84.82
16664;BME280;8445;51.270;9.434;2022-11-21T02:18:27;98170.91;;;2.45;84.59
16664;BME280;8445;51.270;9.434;2022-11-21T02:20:59;98169.34;;;2.43;84.53
16664;BME280;8445;51.270;9.434;2022-11-21T02:26:00;98186.13;;;2.39;84.72
16664;BME280;8445;51.270;9.434;2022-11-21T02:28:26;98180.97;;;2.37;84.29
16664;BME280;8445;51.270;9.434;2022-11-21T02:30:51;98183.81;;;2.34;85.02
16664;BME280;8445;51.270;9.434;2022-11-21T02:33:17;98187.63;;;2.28;84.91
16664;BME280;8445;51.270;9.434;2022-11-21T02:35:43;98192.19;;;2.25;85.22
16664;BME280;8445;51.270;9.434;2022-11-21T02:38:21;98196.56;;;2.24;85.34
16664;BME280;8445;51.270;9.434;2022-11-21T02:40:56;98205.31;;;2.23;84.99
16664;BME280;8445;51.270;9.434;2022-11-21T02:43:25;98204.69;;;2.19;84.94
16664;BME280;8445;51.270;9.434;2022-11-21T02:45:52;98208.22;;;2.18;84.60
16664;BME280;8445;51.270;9.434;2022-11-21T02:48:18;98213.44;;;2.18;85.24
16664;BME280;8445;51.270;9.434;2022-11-21T02:50:45;98214.56;;;2.14;84.60
16664;BME280;8445;51.270;9.434;2022-11-21T02:53:15;98217.34;;;2.11;85.38
16664;BME280;8445;51.270;9.434;2022-11-21T02:55:42;98222.75;;;2.08;84.77
16664;BME280;8445;51.270;9.434;2022-11-21T02:58:08;98212.50;;;2.05;84.42
16664;BME280;8445;51.270;9.434;2022-11-21T03:00:35;98227.31;;;2.04;84.74
16664;BME280;8445;51.270;9.434;2022-11-21T03:03:01;98224.97;;;2.00;84.65
16664;BME280;8445;51.270;9.434;2022-11-21T03:05:27;98230.34;;;1.97;84.81
16664;BME280;8445;51.270;9.434;2022-11-21T03:07:52;98245.19;;;1.96;84.97
16664;BME280;8445;51.270;9.434;2022-11-21T03:10:18;98249.72;;;1.92;84.55
16664;BME280;8445;51.270;9.434;2022-11-21T03:12:43;98255.13;;;1.89;84.94
16664;BME280;8445;51.270;9.434;2022-11-21T03:15:14;98255.97;;;1.90;85.13
16664;BME280;8445;51.270;9.434;2022-11-21T03:17:40;98260.16;;;1.92;84.69
16664;BME280;8445;51.270;9.434;2022-11-21T03:20:06;98251.59;;;1.90;85.52
16664;BME280;8445;51.270;9.434;2022-11-21T03:22:33;98252.34;;;1.92;84.78
16664;BME280;8445;51.270;9.434;2022-11-21T03:24:58;98248.91;;;1.92;85.43
16664;BME280;8445;51.270;9.434;2022-11-21T03:27:24;98253.25;;;1.91;84.67
16664;BME280;8445;51.270;9.434;2022-11-21T03:29:49;98256.97;;;1.87;85.01
16664;BME280;8445;51.270;9.434;2022-11-21T03:32:14;98254.38;;;1.87;84.89
16664;BME280;8445;51.270;9.434;2022-11-21T03:34:40;98251.88;;;1.86;84.66
16664;BME280;8445;51.270;9.434;2022-11-21T03:37:05;98257.16;;;1.84;84.68
16664;BME280;8445;51.270;9.434;2022-11-21T03:39:31;98255.66;;;1.80;84.55
16664;BME280;8445;51.270;9.434;2022-11-21T03:41:57;98262.72;;;1.78;84.66
16664;BME280;8445;51.270;9.434;2022-11-21T03:44:23;98260.22;;;1.76;85.38
16664;BME280;8445;51.270;9.434;2022-11-21T03:46:48;98264.41;;;1.79;84.94
16664;BME280;8445;51.270;9.434;2022-11-21T03:49:14;98262.53;;;1.81;84.65
16664;BME280;8445;51.270;9.434;2022-11-21T03:51:41;98260.88;;;1.80;85.08
16664;BME280;8445;51.270;9.434;2022-11-21T03:54:07;98255.66;;;1.80;84.94
16664;BME280;8445;51.270;9.434;2022-11-21T03:56:32;98252.28;;;1.78;85.38
16664;BME280;8445;51.270;9.434;2022-11-21T03:58:58;98260.22;;;1.76;85.42
16664;BME280;8445;51.270;9.434;2022-11-21T04:01:24;98264.78;;;1.73;85.07
16664;BME280;8445;51.270;9.434;2022-11-21T04:03:51;98269.06;;;1.74;84.92
16664;BME280;8445;51.270;9.434;2022-11-21T04:06:18;98272.59;;;1.73;84.93
16664;BME280;8445;51.270;9.434;2022-11-21T04:08:44;98282.09;;;1.74;85.04
16664;BME280;8445;51.270;9.434;2022-11-21T04:11:10;98283.09;;;1.71;85.22
16664;BME280;8445;51.270;9.434;2022-11-21T04:13:35;98287.50;;;1.71;84.81
16664;BME280;8445;51.270;9.434;2022-11-21T04:16:01;98284.88;;;1.71;85.08
16664;BME280;8445;51.270;9.434;2022-11-21T04:18:27;98291.03;;;1.70;85.11
16664;BME280;8445;51.270;9.434;2022-11-21T04:21:03;98287.50;;;1.71;84.89
16664;BME280;8445;51.270;9.434;2022-11-21T04:23:29;98292.53;;;1.74;85.34
16664;BME280;8445;51.270;9.434;2022-11-21T04:25:54;98293.38;;;1.74;84.57
16664;BME280;8445;51.270;9.434;2022-11-21T04:28:20;98286.28;;;1.76;85.43
16664;BME280;8445;51.270;9.434;2022-11-21T04:30:46;98285.25;;;1.79;85.06
16664;BME280;8445;51.270;9.434;2022-11-21T04:33:13;98278.38;;;1.78;85.37
16664;BME280;8445;51.270;9.434;2022-11-21T04:35:38;98289.72;;;1.77;84.68
16664;BME280;8445;51.270;9.434;2022-11-21T04:38:04;98297.53;;;1.77;85.18
16664;BME280;8445;51.270;9.434;2022-11-21T04:40:29;98289.72;;;1.77;84.98
16664;BME280;8445;51.270;9.434;2022-11-21T04:42:55;98289.00;;;1.75;84.96
16664;BME280;8445;51.270;9.434;2022-11-21T04:45:20;98285.63;;;1.73;84.83
16664;BME280;8445;51.270;9.434;2022-11-21T04:47:46;98288.44;;;1.70;84.99
16664;BME280;8445;51.270;9.434;2022-11-21T04:50:14;98292.13;;;1.66;84.80
16664;BME280;8445;51.270;9.434;2022-11-21T04:52:40;98294.75;;;1.66;84.42
16664;BME280;8445;51.270;9.434;2022-11-21T04:55:06;98294.75;;;1.66;85.14
16664;BME280;8445;51.270;9.434;2022-11-21T04:57:32;98303.13;;;1.71;85.06
16664;BME280;8445;51.270;9.434;2022-11-21T04:59:58;98301.28;;;1.73;85.03
16664;BME280;8445;51.270;9.434;2022-11-21T05:02:24;98298.75;;;1.71;84.70
16664;BME280;8445;51.270;9.434;2022-11-21T05:04:49;98299.59;;;1.72;84.84
16664;BME280;8445;51.270;9.434;2022-11-21T05:07:15;98294.28;;;1.73;84.56
16664;BME280;8445;51.270;9.434;2022-11-21T05:09:41;98301.28;;;1.73;85.17
16664;BME280;8445;51.270;9.434;2022-11-21T05:12:09;98305.75;;;1.71;85.04
16664;BME280;8445;51.270;9.434;2022-11-21T05:14:54;98304.13;;;1.68;85.37
16664;BME280;8445;51.270;9.434;2022-11-21T05:17:19;98305.00;;;1.69;85.02
16664;BME280;8445;51.270;9.434;2022-11-21T05:19:45;98304.47;;;1.62;85.32
16664;BME280;8445;51.270;9.434;2022-11-21T05:22:11;98310.56;;;1.62;85.46
16664;BME280;8445;51.270;9.434;2022-11-21T05:24:36;98300.78;;;1.66;85.11
16664;BME280;8445;51.270;9.434;2022-11-21T05:27:02;98301.63;;;1.67;85.27
16664;BME280;8445;51.270;9.434;2022-11-21T05:29:27;98307.03;;;1.63;85.27
16664;BME280;8445;51.270;9.434;2022-11-21T05:31:53;98297.50;;;1.62;85.34
16664;BME280;8445;51.270;9.434;2022-11-21T05:34:18;98312.47;;;1.59;85.11
16664;BME280;8445;51.270;9.434;2022-11-21T05:36:43;98316.09;;;1.56;85.26
16664;BME280;8445;51.270;9.434;2022-11-21T05:39:09;98319.72;;;1.54;84.69
16664;BME280;8445;51.270;9.434;2022-11-21T05:41:34;98316.44;;;1.50;85.20
16664;BME280;8445;51.270;9.434;2022-11-21T05:44:00;98323.34;;;1.51;85.32
16664;BME280;8445;51.270;9.434;2022-11-21T05:46:25;98317.38;;;1.49;85.51
16664;BME280;8445;51.270;9.434;2022-11-21T05:48:53;98324.25;;;1.50;85.85
16664;BME280;8445;51.270;9.434;2022-11-21T05:51:19;98328.91;;;1.45;85.97
16664;BME280;8445;51.270;9.434;2022-11-21T05:53:46;98326.88;;;1.50;85.27
16664;BME280;8445;51.270;9.434;2022-11-21T05:56:14;98331.06;;;1.53;84.97
16664;BME280;8445;51.270;9.434;2022-11-21T05:58:40;98330.22;;;1.52;84.83
16664;BME280;8445;51.270;9.434;2022-11-21T06:01:06;98337.31;;;1.50;85.02
16664;BME280;8445;51.270;9.434;2022-11-21T06:03:35;98335.63;;;1.49;84.58
16664;BME280;8445;51.270;9.434;2022-11-21T06:06:12;98334.19;;;1.43;85.38
16664;BME280;8445;51.270;9.434;2022-11-21T06:08:39;98329.41;;;1.36;84.96
16664;BME280;8445;51.270;9.434;2022-11-21T06:11:07;98335.63;;;1.33;85.17
16664;BME280;8445;51.270;9.434;2022-11-21T06:13:33;98339.16;;;1.32;84.91
16664;BME280;8445;51.270;9.434;2022-11-21T06:16:01;98342.59;;;1.32;85.17
16664;BME280;8445;51.270;9.434;2022-11-21T06:18:28;98341.75;;;1.32;84.73
16664;BME280;8445;51.270;9.434;2022-11-21T06:23:27;98324.19;;;1.36;85.56
16664;BME280;8445;51.270;9.434;2022-11-21T06:26:01;98341.34;;;1.40;85.72
16664;BME280;8445;51.270;9.434;2022-11-21T06:28:30;98342.25;;;1.39;85.49
16664;BME280;8445;51.270;9.434;2022-11-21T06:31:01;98343.44;;;1.33;85.42
16664;BME280;8445;51.270;9.434;2022-11-21T06:33:27;98345.38;;;1.29;85.02
16664;BME280;8445;51.270;9.434;2022-11-21T06:35:52;98347.22;;;1.27;84.98
16664;BME280;8445;51.270;9.434;2022-11-21T06:38:18;98348.88;;;1.28;85.35
16664;BME280;8445;51.270;9.434;2022-11-21T06:40:43;98354.09;;;1.28;85.45
16664;BME280;8445;51.270;9.434;2022-11-21T06:43:09;98351.44;;;1.30;85.49
16664;BME280;8445;51.270;9.434;2022-11-21T06:45:34;98345.13;;;1.34;85.46
16664;BME280;8445;51.270;9.434;2022-11-21T06:48:01;98347.56;;;1.37;85.52
16664;BME280;8445;51.270;9.434;2022-11-21T06:50:28;98343.34;;;1.35;85.13
16664;BME280;8445;51.270;9.434;2022-11-21T06:52:58;98348.72;;;1.31;85.07
16664;BME280;8445;51.270;9.434;2022-11-21T06:55:24;98354.97;;;1.29;84.92
16664;BME280;8445;51.270;9.434;2022-11-21T06:57:52;98370.50;;;1.30;84.76
16664;BME280;8445;51.270;9.434;2022-11-21T07:00:18;98368.06;;;1.27;85.14
16664;BME280;8445;51.270;9.434;2022-11-21T07:02:45;98352.53;;;1.26;85.45
16664;BME280;8445;51.270;9.434;2022-11-21T07:05:10;98352.41;;;1.27;85.52
16664;BME280;8445;51.270;9.434;2022-11-21T07:07:36;98353.34;;;1.26;84.93
16664;BME280;8445;51.270;9.434;2022-11-21T07:10:02;98354.44;;;1.22;85.26
16664;BME280;8445;51.270;9.434;2022-11-21T07:12:27;98359.31;;;1.12;84.61
16664;BME280;8445;51.270;9.434;2022-11-21T07:15:11;98363.25;;;1.03;84.21
16664;BME280;8445;51.270;9.434;2022-11-21T07:17:36;98371.38;;;0.97;84.83
16664;BME280;8445;51.270;9.434;2022-11-21T07:20:02;98369.63;;;0.98;84.93
16664;BME280;8445;51.270;9.434;2022-11-21T07:22:28;98365.84;;;1.03;85.72
16664;BME280;8445;51.270;9.434;2022-11-21T07:24:53;98375.63;;;1.16;85.71
16664;BME280;8445;51.270;9.434;2022-11-21T07:27:19;98375.81;;;1.29;85.79
16664;BME280;8445;51.270;9.434;2022-11-21T07:29:44;98377.06;;;1.38;86.18
16664;BME280;8445;51.270;9.434;2022-11-21T07:32:10;98370.53;;;1.46;86.11
16664;BME280;8445;51.270;9.434;2022-11-21T07:34:36;98365.47;;;1.59;86.61
16664;BME280;8445;51.270;9.434;2022-11-21T07:37:01;98376.63;;;1.77;86.38
16664;BME280;8445;51.270;9.434;2022-11-21T07:39:27;98366.34;;;1.90;86.17
16664;BME280;8445;51.270;9.434;2022-11-21T07:41:52;98365.63;;;2.03;86.25
16664;BME280;8445;51.270;9.434;2022-11-21T07:44:18;98369.31;;;2.15;86.33
16664;BME280;8445;51.270;9.434;2022-11-21T07:46:43;98369.06;;;2.19;86.18
16664;BME280;8445;51.270;9.434;2022-11-21T07:49:08;98374.00;;;2.24;86.11
16664;BME280;8445;51.270;9.434;2022-11-21T07:51:34;98368.94;;;2.21;85.98
16664;BME280;8445;51.270;9.434;2022-11-21T07:53:59;98377.19;;;2.29;86.91
16664;BME280;8445;51.270;9.434;2022-11-21T07:56:25;98367.88;;;2.40;86.68
16664;BME280;8445;51.270;9.434;2022-11-21T07:58:53;98381.81;;;2.55;86.70
16664;BME280;8445;51.270;9.434;2022-11-21T08:01:19;98374.47;;;2.61;86.60
16664;BME280;8445;51.270;9.434;2022-11-21T08:03:44;98372.22;;;2.70;86.73
16664;BME280;8445;51.270;9.434;2022-11-21T08:06:11;98375.50;;;2.73;87.13
16664;BME280;8445;51.270;9.434;2022-11-21T08:08:37;98368.59;;;2.72;86.51
16664;BME280;8445;51.270;9.434;2022-11-21T08:11:04;98369.78;;;2.66;87.26
16664;BME280;8445;51.270;9.434;2022-11-21T08:13:29;98368.59;;;2.72;87.42
16664;BME280;8445;51.270;9.434;2022-11-21T08:15:55;98374.19;;;2.80;87.50
16664;BME280;8445;51.270;9.434;2022-11-21T08:18:20;98365.41;;;2.96;87.95
16664;BME280;8445;51.270;9.434;2022-11-21T08:20:46;98370.63;;;3.10;87.31
16664;BME280;8445;51.270;9.434;2022-11-21T08:23:11;98371.00;;;3.19;87.28
16664;BME280;8445;51.270;9.434;2022-11-21T08:25:38;98375.28;;;3.20;87.30
16664;BME280;8445;51.270;9.434;2022-11-21T08:28:05;98370.81;;;3.22;87.32
16664;BME280;8445;51.270;9.434;2022-11-21T08:30:32;98365.41;;;3.25;87.36
16664;BME280;8445;51.270;9.434;2022-11-21T08:32:58;98356.25;;;3.32;87.46
16664;BME280;8445;51.270;9.434;2022-11-21T08:35:25;98368.38;;;3.33;87.74
16664;BME280;8445;51.270;9.434;2022-11-21T08:38:00;98375.56;;;3.30;88.40
16664;BME280;8445;51.270;9.434;2022-11-21T08:40:29;98371.75;;;3.35;88.56
16664;BME280;8445;51.270;9.434;2022-11-21T08:43:03;98371.44;;;3.40;87.77
16664;BME280;8445;51.270;9.434;2022-11-21T08:45:29;98375.53;;;3.44;88.81
16664;BME280;8445;51.270;9.434;2022-11-21T08:48:00;98381.81;;;3.41;88.22
16664;BME280;8445;51.270;9.434;2022-11-21T08:50:25;98378.63;;;3.51;88.50
16664;BME280;8445;51.270;9.434;2022-11-21T08:53:01;98376.88;;;3.64;87.71
16664;BME280;8445;51.270;9.434;2022-11-21T08:55:28;98372.13;;;3.71;88.37
16664;BME280;8445;51.270;9.434;2022-11-21T08:57:53;98380.31;;;3.79;87.83
16664;BME280;8445;51.270;9.434;2022-11-21T09:00:19;98366.72;;;3.87;87.54
16664;BME280;8445;51.270;9.434;2022-11-21T09:02:44;98373.88;;;3.98;87.68
16664;BME280;8445;51.270;9.434;2022-11-21T09:05:14;98380.19;;;4.08;87.66
16664;BME280;8445;51.270;9.434;2022-11-21T09:07:42;98380.41;;;4.18;87.46
16664;BME280;8445;51.270;9.434;2022-11-21T09:10:09;98370.28;;;4.26;87.64
16664;BME280;8445;51.270;9.434;2022-11-21T09:12:34;98363.31;;;4.40;87.62
16664;BME280;8445;51.270;9.434;2022-11-21T09:14:59;98362.47;;;4.52;86.79
16664;BME280;8445;51.270;9.434;2022-11-21T09:17:44;98367.50;;;4.55;87.00
16664;BME280;8445;51.270;9.434;2022-11-21T09:20:27;98372.22;;;4.63;87.74
16664;BME280;8445;51.270;9.434;2022-11-21T09:22:53;98373.81;;;4.66;87.28
16664;BME280;8445;51.270;9.434;2022-11-21T09:25:18;98371.94;;;4.68;87.36
16664;BME280;8445;51.270;9.434;2022-11-21T09:27:44;98375.50;;;4.67;87.20
16664;BME280;8445;51.270;9.434;2022-11-21T09:30:09;98365.22;;;4.64;86.51
16664;BME280;8445;51.270;9.434;2022-11-21T09:32:35;98368.97;;;4.59;86.67
16664;BME280;8445;51.270;9.434;2022-11-21T09:35:02;98372.22;;;4.63;87.45
16664;BME280;8445;51.270;9.434;2022-11-21T09:37:27;98374.09;;;4.74;87.86
16664;BME280;8445;51.270;9.434;2022-11-21T09:39:53;98374.00;;;4.88;87.33
16664;BME280;8445;51.270;9.434;2022-11-21T09:42:51;98377.16;;;4.94;84.76
16664;BME280;8445;51.270;9.434;2022-11-21T09:45:33;98381.78;;;4.90;85.29
16664;BME280;8445;51.270;9.434;2022-11-21T09:48:07;98390.38;;;4.92;86.62
16664;BME280;8445;51.270;9.434;2022-11-21T09:50:37;98383.13;;;4.96;86.43
16664;BME280;8445;51.270;9.434;2022-11-21T09:53:17;98377.59;;;5.00;85.69
16664;BME280;8445;51.270;9.434;2022-11-21T10:01:26;98364.88;;;4.81;85.21
16664;BME280;8445;51.270;9.434;2022-11-21T10:03:53;98370.03;;;4.83;86.24
16664;BME280;8445;51.270;9.434;2022-11-21T10:06:24;98367.59;;;4.93;87.00
16664;BME280;8445;51.270;9.434;2022-11-21T10:14:50;98371.28;;;4.90;85.46
16664;BME280;8445;51.270;9.434;2022-11-21T10:23:04;98350.31;;;4.90;85.16
16664;BME280;8445;51.270;9.434;2022-11-21T10:25:36;98338.34;;;4.99;85.31
16664;BME280;8445;51.270;9.434;2022-11-21T10:28:32;98330.38;;;5.13;84.90
16664;BME280;8445;51.270;9.434;2022-11-21T10:31:03;98327.53;;;5.03;86.64
16664;BME280;8445;51.270;9.434;2022-11-21T10:33:33;98327.41;;;5.18;87.64
16664;BME280;8445;51.270;9.434;2022-11-21T10:36:06;98336.59;;;5.37;86.96
16664;BME280;8445;51.270;9.434;2022-11-21T10:38:37;98333.28;;;5.59;87.83
16664;BME280;8445;51.270;9.434;2022-11-21T10:41:09;98335.16;;;5.81;88.60
16664;BME280;8445;51.270;9.434;2022-11-21T10:43:50;98329.44;;;6.00;89.07
16664;BME280;8445;51.270;9.434;2022-11-21T10:46:39;98336.41;;;5.88;87.89
16664;BME280;8445;51.270;9.434;2022-11-21T10:49:11;98342.94;;;5.83;87.13
16664;BME280;8445;51.270;9.434;2022-11-21T10:51:49;98338.81;;;5.67;85.87
16664;BME280;8445;51.270;9.434;2022-11-21T10:54:15;98342.22;;;5.56;86.25
16664;BME280;8445;51.270;9.434;2022-11-21T10:57:18;98337.50;;;5.48;83.73
16664;BME280;8445;51.270;9.434;2022-11-21T11:02:24;98325.91;;;5.40;84.37
16664;BME280;8445;51.270;9.434;2022-11-21T11:07:35;98316.63;;;5.23;84.59
16664;BME280;8445;51.270;9.434;2022-11-21T11:10:20;98311.88;;;5.28;82.79
16664;BME280;8445;51.270;9.434;2022-11-21T11:12:48;98315.06;;;5.44;86.50
16664;BME280;8445;51.270;9.434;2022-11-21T11:15:33;98314.41;;;5.54;87.32
16664;BME280;8445;51.270;9.434;2022-11-21T11:18:02;98307.31;;;5.67;87.57
16664;BME280;8445;51.270;9.434;2022-11-21T11:22:56;98304.31;;;5.85;87.19
16664;BME280;8445;51.270;9.434;2022-11-21T11:25:22;98297.41;;;5.95;86.41
16664;BME280;8445;51.270;9.434;2022-11-21T11:27:48;98293.41;;;6.02;86.41
16664;BME280;8445;51.270;9.434;2022-11-21T11:30:18;98272.28;;;6.04;84.90
16664;BME280;8445;51.270;9.434;2022-11-21T11:32:43;98271.72;;;6.12;85.01
16664;BME280;8445;51.270;9.434;2022-11-21T11:37:39;98262.44;;;6.30;86.84
16664;BME280;8445;51.270;9.434;2022-11-21T11:40:20;98262.28;;;6.20;85.54
16664;BME280;8445;51.270;9.434;2022-11-21T11:49:20;98255.50;;;6.18;86.28
16664;BME280;8445;51.270;9.434;2022-11-21T11:51:52;98253.84;;;6.28;86.42
16664;BME280;8445;51.270;9.434;2022-11-21T11:54:23;98236.19;;;6.42;86.40
16664;BME280;8445;51.270;9.434;2022-11-21T11:56:51;98231.41;;;6.47;86.08
16664;BME280;8445;51.270;9.434;2022-11-21T11:59:31;98239.28;;;6.58;85.89
16664;BME280;8445;51.270;9.434;2022-11-21T12:02:09;98228.91;;;6.68;86.88
16664;BME280;8445;51.270;9.434;2022-11-21T12:04:54;98238.31;;;6.82;86.83
16664;BME280;8445;51.270;9.434;2022-11-21T12:07:30;98229.00;;;6.89;86.82
16664;BME280;8445;51.270;9.434;2022-11-21T12:10:03;98229.25;;;6.86;85.73
16664;BME280;8445;51.270;9.434;2022-11-21T12:13:03;98224.69;;;6.88;84.99
16664;BME280;8445;51.270;9.434;2022-11-21T12:15:43;98229.81;;;6.90;83.85
16664;BME280;8445;51.270;9.434;2022-11-21T12:32:12;98189.25;;;7.15;81.61
16664;BME280;8445;51.270;9.434;2022-11-21T12:48:20;98174.53;;;7.24;82.39
16664;BME280;8445;51.270;9.434;2022-11-21T12:51:39;98162.00;;;7.37;83.21
16664;BME280;8445;51.270;9.434;2022-11-21T12:59:30;98159.03;;;7.09;83.73
16664;BME280;8445;51.270;9.434;2022-11-21T13:02:11;98163.19;;;7.12;83.83
16664;BME280;8445;51.270;9.434;2022-11-21T13:04:43;98148.75;;;7.06;84.75
16664;BME280;8445;51.270;9.434;2022-11-21T13:07:10;98142.13;;;7.23;85.17
16664;BME280;8445;51.270;9.434;2022-11-21T13:09:39;98146.56;;;7.44;84.79
16664;BME280;8445;51.270;9.434;2022-11-21T13:15:09;98142.16;;;7.12;81.92
16664;BME280;8445;51.270;9.434;2022-11-21T13:17:57;98138.75;;;7.00;81.76
16664;BME280;8445;51.270;9.434;2022-11-21T13:20:48;98131.06;;;7.08;84.41
16664;BME280;8445;51.270;9.434;2022-11-21T13:28:50;98121.97;;;6.68;84.02
16664;BME280;8445;51.270;9.434;2022-11-21T13:31:46;98122.00;;;6.57;80.90
16664;BME280;8445;51.270;9.434;2022-11-21T13:36:56;98115.13;;;6.33;82.40
16664;BME280;8445;51.270;9.434;2022-11-21T13:39:28;98120.00;;;6.27;83.15
16664;BME280;8445;51.270;9.434;2022-11-21T13:41:58;98119.44;;;6.23;82.49
16664;BME280;8445;51.270;9.434;2022-11-21T13:44:43;98121.44;;;6.31;82.46
16664;BME280;8445;51.270;9.434;2022-11-21T13:57:51;98109.34;;;5.71;81.11
16664;BME280;8445;51.270;9.434;2022-11-21T14:00:51;98111.63;;;5.76;80.81
16664;BME280;8445;51.270;9.434;2022-11-21T14:06:17;98107.81;;;5.80;81.37
16664;BME280;8445;51.270;9.434;2022-11-21T14:11:48;98106.13;;;5.79;80.93
16664;BME280;8445;51.270;9.434;2022-11-21T14:14:36;98095.75;;;5.89;81.21
16664;BME280;8445;51.270;9.434;2022-11-21T14:17:19;98098.28;;;5.90;81.44
16664;BME280;8445;51.270;9.434;2022-11-21T14:19:54;98096.03;;;5.86;80.76
16664;BME280;8445;51.270;9.434;2022-11-21T14:23:03;98083.13;;;5.71;79.25
16664;BME280;8445;51.270;9.434;2022-11-21T14:25:43;98081.66;;;5.56;80.02
16664;BME280;8445;51.270;9.434;2022-11-21T14:30:59;98076.63;;;5.30;80.25
16664;BME280;8445;51.270;9.434;2022-11-21T14:33:32;98066.31;;;5.15;80.44
16664;BME280;8445;51.270;9.434;2022-11-21T14:36:19;98071.53;;;5.04;80.23
16664;BME280;8445;51.270;9.434;2022-11-21T14:44:02;98051.84;;;4.63;80.66
16664;BME280;8445;51.270;9.434;2022-11-21T14:46:36;98056.13;;;4.64;80.01
16664;BME280;8445;51.270;9.434;2022-11-21T14:49:23;98046.69;;;4.61;80.37
16664;BME280;8445;51.270;9.434;2022-11-21T14:54:29;98041.91;;;4.55;80.25
16664;BME280;8445;51.270;9.434;2022-11-21T14:57:00;98034.28;;;4.52;80.07
16664;BME280;8445;51.270;9.434;2022-11-21T14:59:32;98032.50;;;4.52;80.41
16664;BME280;8445;51.270;9.434;2022-11-21T15:04:41;98029.38;;;4.47;79.73
16664;BME280;8445;51.270;9.434;2022-11-21T15:09:42;98025.53;;;4.40;79.81
16664;BME280;8445;51.270;9.434;2022-11-21T15:12:08;98031.34;;;4.32;80.11
16664;BME280;8445;51.270;9.434;2022-11-21T15:15:03;98018.84;;;4.36;80.40
16664;BME280;8445;51.270;9.434;2022-11-21T15:17:31;98003.34;;;4.33;79.95
16664;BME280;8445;51.270;9.434;2022-11-21T15:22:43;98008.94;;;4.28;79.96
16664;BME280;8445;51.270;9.434;2022-11-21T15:27:41;98000.16;;;4.16;79.22
16664;BME280;8445;51.270;9.434;2022-11-21T15:37:58;97993.94;;;4.06;79.98
16664;BME280;8445;51.270;9.434;2022-11-21T15:40:24;97986.41;;;4.01;79.69
16664;BME280;8445;51.270;9.434;2022-11-21T15:42:49;97993.66;;;3.97;79.71